sensor_id;sensor_type;location;lat;lon;timestamp;P1;durP1;ratioP1;P2;durP2;ratioP2
4806;SDS011;2417;52.482;13.432;2023-05-10T00:00:18;24.90;;;6.90;;
4806;SDS011;2417;52.482;13.432;2023-05-10T00:02:46;27.50;;;6.93;;
4806;SDS011;2417;52.482;13.432;2023-05-10T00:05:16;25.43;;;6.70;;
4806;SDS011;2417;52.482;13.432;2023-05-10T00:07:43;27.33;;;6.53;;
4806;SDS011;2417;52.482;13.432;2023-05-10T00:10:11;26.70;;;6.77;;
4806;SDS011;2417;52.482;13.432;2023-05-10T00:12:40;24.33;;;5.80;;
4806;SDS011;2417;52.482;13.432;2023-05-10T00:15:08;24.63;;;6.70;;
4806;SDS011;2417;52.482;13.432;2023-05-10T00:17:36;26.80;;;6.93;;
4806;SDS011;2417;52.482;13.432;2023-05-10T00:20:04;25.57;;;6.67;;
4806;SDS011;2417;52.482;13.432;2023-05-10T00:22:34;26.70;;;7.30;;
4806;SDS011;2417;52.482;13.432;2023-05-10T00:25:02;36.90;;;7.67;;
4806;SDS011;2417;52.482;13.432;2023-05-10T00:27:30;29.67;;;7.53;;
4806;SDS011;2417;52.482;13.432;2023-05-10T00:29:58;25.57;;;6.93;;
4806;SDS011;2417;52.482;13.432;2023-05-10T00:32:26;27.47;;;7.57;;
4806;SDS011;2417;52.482;13.432;2023-05-10T00:34:54;28.83;;;7.30;;
4806;SDS011;2417;52.482;13.432;2023-05-10T00:37:22;28.30;;;7.87;;
4806;SDS011;2417;52.482;13.432;2023-05-10T00:39:51;30.60;;;7.90;;
4806;SDS011;2417;52.482;13.432;2023-05-10T00:42:19;28.80;;;7.87;;
4806;SDS011;2417;52.482;13.432;2023-05-10T00:44:47;29.20;;;7.57;;
4806;SDS011;2417;52.482;13.432;2023-05-10T00:47:16;29.43;;;7.70;;
4806;SDS011;2417;52.482;13.432;2023-05-10T00:49:44;33.60;;;8.33;;
4806;SDS011;2417;52.482;13.432;2023-05-10T00:52:12;30.00;;;7.33;;
4806;SDS011;2417;52.482;13.432;2023-05-10T00:54:40;31.20;;;8.17;;
4806;SDS011;2417;52.482;13.432;2023-05-10T00:57:09;32.70;;;7.80;;
4806;SDS011;2417;52.482;13.432;2023-05-10T00:59:37;37.10;;;7.63;;
4806;SDS011;2417;52.482;13.432;2023-05-10T01:02:05;34.63;;;8.17;;
4806;SDS011;2417;52.482;13.432;2023-05-10T01:04:34;30.33;;;7.97;;
4806;SDS011;2417;52.482;13.432;2023-05-10T01:07:02;31.03;;;7.47;;
4806;SDS011;2417;52.482;13.432;2023-05-10T01:09:30;34.83;;;8.13;;
4806;SDS011;2417;52.482;13.432;2023-05-10T01:11:59;32.20;;;8.13;;
4806;SDS011;2417;52.482;13.432;2023-05-10T01:14:30;31.07;;;7.40;;
4806;SDS011;2417;52.482;13.432;2023-05-10T01:16:59;33.30;;;7.90;;
4806;SDS011;2417;52.482;13.432;2023-05-10T01:19:28;32.23;;;7.87;;
4806;SDS011;2417;52.482;13.432;2023-05-10T01:21:59;32.47;;;8.00;;
4806;SDS011;2417;52.482;13.432;2023-05-10T01:27:25;35.93;;;8.13;;
4806;SDS011;2417;52.482;13.432;2023-05-10T01:32:54;33.77;;;7.70;;
4806;SDS011;2417;52.482;13.432;2023-05-10T01:35:26;32.30;;;7.60;;
4806;SDS011;2417;52.482;13.432;2023-05-10T01:37:59;34.53;;;8.30;;
4806;SDS011;2417;52.482;13.432;2023-05-10T01:40:32;34.17;;;7.67;;
4806;SDS011;2417;52.482;13.432;2023-05-10T01:43:03;33.93;;;8.00;;
4806;SDS011;2417;52.482;13.432;2023-05-10T01:45:32;36.90;;;8.60;;
4806;SDS011;2417;52.482;13.432;2023-05-10T01:48:05;32.87;;;7.73;;
4806;SDS011;2417;52.482;13.432;2023-05-10T01:50:34;39.97;;;7.90;;
4806;SDS011;2417;52.482;13.432;2023-05-10T01:53:05;34.00;;;7.43;;
4806;SDS011;2417;52.482;13.432;2023-05-10T01:55:35;33.50;;;8.13;;
4806;SDS011;2417;52.482;13.432;2023-05-10T01:58:04;32.07;;;7.30;;
4806;SDS011;2417;52.482;13.432;2023-05-10T02:00:35;38.47;;;8.43;;
4806;SDS011;2417;52.482;13.432;2023-05-10T02:03:05;42.70;;;8.77;;
4806;SDS011;2417;52.482;13.432;2023-05-10T02:05:34;39.63;;;7.13;;
4806;SDS011;2417;52.482;13.432;2023-05-10T02:08:05;32.97;;;7.90;;
4806;SDS011;2417;52.482;13.432;2023-05-10T02:10:35;34.57;;;7.70;;
4806;SDS011;2417;52.482;13.432;2023-05-10T02:13:04;36.70;;;7.90;;
4806;SDS011;2417;52.482;13.432;2023-05-10T02:15:33;35.13;;;7.50;;
4806;SDS011;2417;52.482;13.432;2023-05-10T02:18:01;34.73;;;7.40;;
4806;SDS011;2417;52.482;13.432;2023-05-10T02:20:31;34.10;;;7.23;;
4806;SDS011;2417;52.482;13.432;2023-05-10T02:23:01;34.23;;;7.50;;
4806;SDS011;2417;52.482;13.432;2023-05-10T02:25:31;35.30;;;7.20;;
4806;SDS011;2417;52.482;13.432;2023-05-10T02:28:00;35.90;;;7.57;;
4806;SDS011;2417;52.482;13.432;2023-05-10T02:30:29;39.30;;;8.07;;
4806;SDS011;2417;52.482;13.432;2023-05-10T02:32:58;36.13;;;7.60;;
4806;SDS011;2417;52.482;13.432;2023-05-10T02:35:26;39.20;;;7.60;;
4806;SDS011;2417;52.482;13.432;2023-05-10T02:37:56;35.63;;;7.33;;
4806;SDS011;2417;52.482;13.432;2023-05-10T02:40:25;35.47;;;7.67;;
4806;SDS011;2417;52.482;13.432;2023-05-10T02:42:55;36.90;;;8.03;;
4806;SDS011;2417;52.482;13.432;2023-05-10T02:45:26;38.03;;;7.47;;
4806;SDS011;2417;52.482;13.432;2023-05-10T02:47:55;37.20;;;7.43;;
4806;SDS011;2417;52.482;13.432;2023-05-10T02:50:24;40.07;;;8.30;;
4806;SDS011;2417;52.482;13.432;2023-05-10T02:52:54;41.50;;;8.07;;
4806;SDS011;2417;52.482;13.432;2023-05-10T02:55:25;39.57;;;8.10;;
4806;SDS011;2417;52.482;13.432;2023-05-10T02:57:56;38.77;;;7.93;;
4806;SDS011;2417;52.482;13.432;2023-05-10T03:00:25;37.60;;;6.90;;
4806;SDS011;2417;52.482;13.432;2023-05-10T03:02:53;41.60;;;7.53;;
4806;SDS011;2417;52.482;13.432;2023-05-10T03:05:21;41.23;;;6.90;;
4806;SDS011;2417;52.482;13.432;2023-05-10T03:07:49;47.50;;;7.70;;
4806;SDS011;2417;52.482;13.432;2023-05-10T03:10:18;42.73;;;7.67;;
4806;SDS011;2417;52.482;13.432;2023-05-10T03:12:52;42.40;;;7.40;;
4806;SDS011;2417;52.482;13.432;2023-05-10T03:15:25;40.30;;;7.20;;
4806;SDS011;2417;52.482;13.432;2023-05-10T03:18:01;42.07;;;7.50;;
4806;SDS011;2417;52.482;13.432;2023-05-10T03:20:31;43.10;;;7.77;;
4806;SDS011;2417;52.482;13.432;2023-05-10T03:23:02;40.93;;;7.37;;
4806;SDS011;2417;52.482;13.432;2023-05-10T03:25:31;42.70;;;6.90;;
4806;SDS011;2417;52.482;13.432;2023-05-10T03:28:03;40.77;;;6.83;;
4806;SDS011;2417;52.482;13.432;2023-05-10T03:30:32;48.23;;;7.07;;
4806;SDS011;2417;52.482;13.432;2023-05-10T03:33:03;42.33;;;7.03;;
4806;SDS011;2417;52.482;13.432;2023-05-10T03:35:34;44.00;;;7.33;;
4806;SDS011;2417;52.482;13.432;2023-05-10T03:38:03;43.27;;;7.33;;
4806;SDS011;2417;52.482;13.432;2023-05-10T03:40:30;43.67;;;7.17;;
4806;SDS011;2417;52.482;13.432;2023-05-10T03:43:00;39.13;;;6.50;;
4806;SDS011;2417;52.482;13.432;2023-05-10T03:45:30;40.10;;;6.97;;
4806;SDS011;2417;52.482;13.432;2023-05-10T03:47:58;41.87;;;7.23;;
4806;SDS011;2417;52.482;13.432;2023-05-10T03:50:27;42.77;;;6.90;;
4806;SDS011;2417;52.482;13.432;2023-05-10T03:52:55;42.50;;;7.30;;
4806;SDS011;2417;52.482;13.432;2023-05-10T03:55:23;42.60;;;7.37;;
4806;SDS011;2417;52.482;13.432;2023-05-10T03:57:52;40.30;;;6.97;;
4806;SDS011;2417;52.482;13.432;2023-05-10T04:00:21;41.43;;;7.07;;
4806;SDS011;2417;52.482;13.432;2023-05-10T04:02:54;42.90;;;7.13;;
4806;SDS011;2417;52.482;13.432;2023-05-10T04:05:22;41.07;;;7.07;;
4806;SDS011;2417;52.482;13.432;2023-05-10T04:07:51;41.63;;;7.10;;
4806;SDS011;2417;52.482;13.432;2023-05-10T04:10:19;46.90;;;7.53;;
4806;SDS011;2417;52.482;13.432;2023-05-10T04:12:48;42.67;;;6.80;;
4806;SDS011;2417;52.482;13.432;2023-05-10T04:15:16;43.23;;;6.73;;
4806;SDS011;2417;52.482;13.432;2023-05-10T04:17:44;40.07;;;6.20;;
4806;SDS011;2417;52.482;13.432;2023-05-10T04:20:14;41.60;;;6.43;;
4806;SDS011;2417;52.482;13.432;2023-05-10T04:22:42;40.47;;;6.03;;
4806;SDS011;2417;52.482;13.432;2023-05-10T04:25:10;43.77;;;6.67;;
4806;SDS011;2417;52.482;13.432;2023-05-10T04:27:39;40.73;;;6.07;;
4806;SDS011;2417;52.482;13.432;2023-05-10T04:30:07;38.70;;;5.73;;
4806;SDS011;2417;52.482;13.432;2023-05-10T04:32:35;40.07;;;5.90;;
4806;SDS011;2417;52.482;13.432;2023-05-10T04:35:04;40.10;;;5.77;;
4806;SDS011;2417;52.482;13.432;2023-05-10T04:37:33;40.97;;;6.30;;
4806;SDS011;2417;52.482;13.432;2023-05-10T04:40:01;38.80;;;5.43;;
4806;SDS011;2417;52.482;13.432;2023-05-10T04:42:29;44.30;;;6.30;;
4806;SDS011;2417;52.482;13.432;2023-05-10T04:44:57;38.80;;;5.80;;
4806;SDS011;2417;52.482;13.432;2023-05-10T04:47:25;41.07;;;6.93;;
4806;SDS011;2417;52.482;13.432;2023-05-10T04:49:53;41.10;;;6.13;;
4806;SDS011;2417;52.482;13.432;2023-05-10T04:52:21;39.97;;;6.00;;
4806;SDS011;2417;52.482;13.432;2023-05-10T04:54:50;41.50;;;6.00;;
4806;SDS011;2417;52.482;13.432;2023-05-10T04:57:18;40.40;;;5.97;;
4806;SDS011;2417;52.482;13.432;2023-05-10T04:59:45;40.57;;;5.80;;
4806;SDS011;2417;52.482;13.432;2023-05-10T05:02:16;40.37;;;5.43;;
4806;SDS011;2417;52.482;13.432;2023-05-10T05:04:44;41.20;;;5.40;;
4806;SDS011;2417;52.482;13.432;2023-05-10T05:07:12;31.43;;;5.47;;
4806;SDS011;2417;52.482;13.432;2023-05-10T05:09:39;30.80;;;5.80;;
4806;SDS011;2417;52.482;13.432;2023-05-10T05:12:09;39.87;;;5.23;;
4806;SDS011;2417;52.482;13.432;2023-05-10T05:14:40;35.07;;;5.73;;
4806;SDS011;2417;52.482;13.432;2023-05-10T05:17:08;31.87;;;4.93;;
4806;SDS011;2417;52.482;13.432;2023-05-10T05:19:36;28.23;;;5.20;;
4806;SDS011;2417;52.482;13.432;2023-05-10T05:22:06;33.10;;;4.90;;
4806;SDS011;2417;52.482;13.432;2023-05-10T05:24:34;35.87;;;5.67;;
4806;SDS011;2417;52.482;13.432;2023-05-10T05:27:03;27.70;;;4.87;;
4806;SDS011;2417;52.482;13.432;2023-05-10T05:29:32;26.90;;;4.80;;
4806;SDS011;2417;52.482;13.432;2023-05-10T05:32:00;27.13;;;4.83;;
4806;SDS011;2417;52.482;13.432;2023-05-10T05:34:28;30.93;;;4.97;;
4806;SDS011;2417;52.482;13.432;2023-05-10T05:36:58;26.20;;;4.47;;
4806;SDS011;2417;52.482;13.432;2023-05-10T05:39:26;25.70;;;4.60;;
4806;SDS011;2417;52.482;13.432;2023-05-10T05:41:54;25.17;;;4.20;;
4806;SDS011;2417;52.482;13.432;2023-05-10T05:44:22;26.83;;;4.80;;
4806;SDS011;2417;52.482;13.432;2023-05-10T05:46:51;29.10;;;4.80;;
4806;SDS011;2417;52.482;13.432;2023-05-10T05:49:19;29.80;;;4.73;;
4806;SDS011;2417;52.482;13.432;2023-05-10T05:51:47;24.80;;;4.23;;
4806;SDS011;2417;52.482;13.432;2023-05-10T05:54:15;26.83;;;5.00;;
4806;SDS011;2417;52.482;13.432;2023-05-10T05:56:43;31.57;;;4.40;;
4806;SDS011;2417;52.482;13.432;2023-05-10T05:59:11;26.70;;;4.10;;
4806;SDS011;2417;52.482;13.432;2023-05-10T06:01:41;26.77;;;4.47;;
4806;SDS011;2417;52.482;13.432;2023-05-10T06:04:10;27.70;;;4.30;;
4806;SDS011;2417;52.482;13.432;2023-05-10T06:06:39;25.33;;;4.57;;
4806;SDS011;2417;52.482;13.432;2023-05-10T06:09:06;26.70;;;4.43;;
4806;SDS011;2417;52.482;13.432;2023-05-10T06:11:34;28.03;;;4.63;;
4806;SDS011;2417;52.482;13.432;2023-05-10T06:14:02;22.30;;;3.80;;
4806;SDS011;2417;52.482;13.432;2023-05-10T06:16:31;24.77;;;4.10;;
4806;SDS011;2417;52.482;13.432;2023-05-10T06:19:00;23.03;;;4.40;;
4806;SDS011;2417;52.482;13.432;2023-05-10T06:21:30;23.80;;;4.50;;
4806;SDS011;2417;52.482;13.432;2023-05-10T06:23:59;26.77;;;3.97;;
4806;SDS011;2417;52.482;13.432;2023-05-10T06:26:27;21.93;;;3.93;;
4806;SDS011;2417;52.482;13.432;2023-05-10T06:28:55;25.50;;;4.20;;
4806;SDS011;2417;52.482;13.432;2023-05-10T06:31:23;20.03;;;3.80;;
4806;SDS011;2417;52.482;13.432;2023-05-10T06:33:51;20.20;;;3.90;;
4806;SDS011;2417;52.482;13.432;2023-05-10T06:36:22;20.87;;;4.17;;
4806;SDS011;2417;52.482;13.432;2023-05-10T06:38:52;19.33;;;3.80;;
4806;SDS011;2417;52.482;13.432;2023-05-10T06:41:21;19.37;;;3.47;;
4806;SDS011;2417;52.482;13.432;2023-05-10T06:43:50;17.87;;;3.97;;
4806;SDS011;2417;52.482;13.432;2023-05-10T06:46:18;19.03;;;4.10;;
4806;SDS011;2417;52.482;13.432;2023-05-10T06:48:46;18.40;;;3.87;;
4806;SDS011;2417;52.482;13.432;2023-05-10T06:51:14;20.50;;;3.80;;
4806;SDS011;2417;52.482;13.432;2023-05-10T06:53:42;17.93;;;3.50;;
4806;SDS011;2417;52.482;13.432;2023-05-10T06:56:11;17.00;;;3.47;;
4806;SDS011;2417;52.482;13.432;2023-05-10T06:58:39;19.00;;;3.20;;
4806;SDS011;2417;52.482;13.432;2023-05-10T07:01:07;17.57;;;3.87;;
4806;SDS011;2417;52.482;13.432;2023-05-10T07:03:35;17.47;;;4.20;;
4806;SDS011;2417;52.482;13.432;2023-05-10T07:06:03;18.80;;;4.10;;
4806;SDS011;2417;52.482;13.432;2023-05-10T07:08:31;20.33;;;4.17;;
4806;SDS011;2417;52.482;13.432;2023-05-10T07:11:00;21.50;;;3.70;;
4806;SDS011;2417;52.482;13.432;2023-05-10T07:13:31;20.60;;;4.00;;
4806;SDS011;2417;52.482;13.432;2023-05-10T07:15:59;24.93;;;5.07;;
4806;SDS011;2417;52.482;13.432;2023-05-10T07:18:28;20.10;;;4.07;;
4806;SDS011;2417;52.482;13.432;2023-05-10T07:20:56;24.03;;;3.50;;
4806;SDS011;2417;52.482;13.432;2023-05-10T07:23:24;18.67;;;3.50;;
4806;SDS011;2417;52.482;13.432;2023-05-10T07:25:52;22.90;;;3.83;;
4806;SDS011;2417;52.482;13.432;2023-05-10T07:28:21;36.63;;;5.03;;
4806;SDS011;2417;52.482;13.432;2023-05-10T07:30:51;18.93;;;3.93;;
4806;SDS011;2417;52.482;13.432;2023-05-10T07:33:20;19.30;;;3.23;;
4806;SDS011;2417;52.482;13.432;2023-05-10T07:35:48;37.63;;;4.80;;
4806;SDS011;2417;52.482;13.432;2023-05-10T07:38:16;16.70;;;4.00;;
4806;SDS011;2417;52.482;13.432;2023-05-10T07:40:44;20.60;;;4.10;;
4806;SDS011;2417;52.482;13.432;2023-05-10T07:43:12;21.80;;;3.60;;
4806;SDS011;2417;52.482;13.432;2023-05-10T07:45:40;20.30;;;3.73;;
4806;SDS011;2417;52.482;13.432;2023-05-10T07:48:09;18.13;;;3.20;;
4806;SDS011;2417;52.482;13.432;2023-05-10T07:50:38;18.97;;;3.13;;
4806;SDS011;2417;52.482;13.432;2023-05-10T07:53:06;19.77;;;3.80;;
4806;SDS011;2417;52.482;13.432;2023-05-10T07:55:35;24.30;;;3.80;;
4806;SDS011;2417;52.482;13.432;2023-05-10T07:58:02;19.20;;;3.80;;
4806;SDS011;2417;52.482;13.432;2023-05-10T08:00:30;19.00;;;4.13;;
4806;SDS011;2417;52.482;13.432;2023-05-10T08:02:59;16.33;;;3.60;;
4806;SDS011;2417;52.482;13.432;2023-05-10T08:05:28;20.60;;;3.90;;
4806;SDS011;2417;52.482;13.432;2023-05-10T08:07:56;19.43;;;3.30;;
4806;SDS011;2417;52.482;13.432;2023-05-10T08:10:24;15.67;;;3.00;;
4806;SDS011;2417;52.482;13.432;2023-05-10T08:12:52;18.77;;;3.87;;
4806;SDS011;2417;52.482;13.432;2023-05-10T08:15:20;16.47;;;4.17;;
4806;SDS011;2417;52.482;13.432;2023-05-10T08:17:48;18.20;;;3.70;;
4806;SDS011;2417;52.482;13.432;2023-05-10T08:20:16;15.30;;;3.30;;
4806;SDS011;2417;52.482;13.432;2023-05-10T08:22:46;16.27;;;3.63;;
4806;SDS011;2417;52.482;13.432;2023-05-10T08:25:17;17.97;;;3.60;;
4806;SDS011;2417;52.482;13.432;2023-05-10T08:27:45;20.20;;;3.33;;
4806;SDS011;2417;52.482;13.432;2023-05-10T08:30:13;14.57;;;3.33;;
4806;SDS011;2417;52.482;13.432;2023-05-10T08:32:41;18.53;;;3.10;;
4806;SDS011;2417;52.482;13.432;2023-05-10T08:35:09;17.00;;;3.53;;
4806;SDS011;2417;52.482;13.432;2023-05-10T08:37:37;15.10;;;3.30;;
4806;SDS011;2417;52.482;13.432;2023-05-10T08:40:07;21.93;;;3.27;;
4806;SDS011;2417;52.482;13.432;2023-05-10T08:42:36;16.40;;;3.43;;
4806;SDS011;2417;52.482;13.432;2023-05-10T08:45:07;15.00;;;3.80;;
4806;SDS011;2417;52.482;13.432;2023-05-10T08:47:35;16.40;;;3.43;;
4806;SDS011;2417;52.482;13.432;2023-05-10T08:50:05;14.40;;;3.27;;
4806;SDS011;2417;52.482;13.432;2023-05-10T08:52:34;19.10;;;3.40;;
4806;SDS011;2417;52.482;13.432;2023-05-10T08:55:07;15.90;;;3.30;;
4806;SDS011;2417;52.482;13.432;2023-05-10T08:57:35;17.83;;;3.30;;
4806;SDS011;2417;52.482;13.432;2023-05-10T09:00:03;14.83;;;3.10;;
4806;SDS011;2417;52.482;13.432;2023-05-10T09:02:32;18.73;;;4.10;;
4806;SDS011;2417;52.482;13.432;2023-05-10T09:05:00;20.27;;;3.60;;
4806;SDS011;2417;52.482;13.432;2023-05-10T09:07:29;17.03;;;3.50;;
4806;SDS011;2417;52.482;13.432;2023-05-10T09:09:57;14.30;;;3.23;;
4806;SDS011;2417;52.482;13.432;2023-05-10T09:12:27;14.93;;;3.43;;
4806;SDS011;2417;52.482;13.432;2023-05-10T09:14:55;20.80;;;4.37;;
4806;SDS011;2417;52.482;13.432;2023-05-10T09:17:23;18.50;;;4.03;;
4806;SDS011;2417;52.482;13.432;2023-05-10T09:19:56;16.43;;;4.00;;
4806;SDS011;2417;52.482;13.432;2023-05-10T09:22:25;16.50;;;3.50;;
4806;SDS011;2417;52.482;13.432;2023-05-10T09:25:03;23.93;;;4.43;;
4806;SDS011;2417;52.482;13.432;2023-05-10T09:27:33;15.63;;;3.73;;
4806;SDS011;2417;52.482;13.432;2023-05-10T09:30:01;15.87;;;3.47;;
4806;SDS011;2417;52.482;13.432;2023-05-10T09:32:36;19.53;;;3.47;;
4806;SDS011;2417;52.482;13.432;2023-05-10T09:35:08;14.87;;;3.73;;
4806;SDS011;2417;52.482;13.432;2023-05-10T09:37:36;19.90;;;3.80;;
4806;SDS011;2417;52.482;13.432;2023-05-10T09:40:05;15.90;;;3.40;;
4806;SDS011;2417;52.482;13.432;2023-05-10T09:42:37;21.33;;;3.63;;
4806;SDS011;2417;52.482;13.432;2023-05-10T09:45:05;15.57;;;3.93;;
4806;SDS011;2417;52.482;13.432;2023-05-10T09:47:34;13.73;;;3.30;;
4806;SDS011;2417;52.482;13.432;2023-05-10T09:50:03;17.60;;;3.80;;
4806;SDS011;2417;52.482;13.432;2023-05-10T09:52:35;13.53;;;3.47;;
4806;SDS011;2417;52.482;13.432;2023-05-10T09:55:13;15.43;;;4.10;;
4806;SDS011;2417;52.482;13.432;2023-05-10T09:57:43;19.17;;;4.10;;
4806;SDS011;2417;52.482;13.432;2023-05-10T10:00:11;14.37;;;3.17;;
4806;SDS011;2417;52.482;13.432;2023-05-10T10:02:45;15.47;;;3.60;;
4806;SDS011;2417;52.482;13.432;2023-05-10T10:05:13;15.77;;;3.90;;
4806;SDS011;2417;52.482;13.432;2023-05-10T10:07:41;17.93;;;4.40;;
4806;SDS011;2417;52.482;13.432;2023-05-10T10:10:10;18.23;;;3.30;;
4806;SDS011;2417;52.482;13.432;2023-05-10T10:12:39;16.50;;;4.20;;
4806;SDS011;2417;52.482;13.432;2023-05-10T10:15:09;20.53;;;3.83;;
4806;SDS011;2417;52.482;13.432;2023-05-10T10:17:41;14.00;;;3.50;;
4806;SDS011;2417;52.482;13.432;2023-05-10T10:20:10;18.57;;;3.27;;
4806;SDS011;2417;52.482;13.432;2023-05-10T10:22:38;14.20;;;3.97;;
4806;SDS011;2417;52.482;13.432;2023-05-10T10:25:07;13.43;;;3.30;;
4806;SDS011;2417;52.482;13.432;2023-05-10T10:27:37;16.20;;;3.50;;
4806;SDS011;2417;52.482;13.432;2023-05-10T10:30:13;20.17;;;3.83;;
4806;SDS011;2417;52.482;13.432;2023-05-10T10:32:49;14.83;;;4.10;;
4806;SDS011;2417;52.482;13.432;2023-05-10T10:35:22;15.07;;;3.30;;
4806;SDS011;2417;52.482;13.432;2023-05-10T10:37:51;13.63;;;3.07;;
4806;SDS011;2417;52.482;13.432;2023-05-10T10:40:28;18.43;;;3.60;;
4806;SDS011;2417;52.482;13.432;2023-05-10T10:45:45;13.73;;;3.83;;
4806;SDS011;2417;52.482;13.432;2023-05-10T10:48:21;13.83;;;3.77;;
4806;SDS011;2417;52.482;13.432;2023-05-10T10:50:55;13.27;;;3.63;;
4806;SDS011;2417;52.482;13.432;2023-05-10T10:53:25;13.17;;;3.93;;
4806;SDS011;2417;52.482;13.432;2023-05-10T10:56:01;15.80;;;4.23;;
4806;SDS011;2417;52.482;13.432;2023-05-10T10:58:30;11.97;;;3.53;;
4806;SDS011;2417;52.482;13.432;2023-05-10T11:03:55;13.93;;;3.53;;
4806;SDS011;2417;52.482;13.432;2023-05-10T11:06:30;12.60;;;3.77;;
4806;SDS011;2417;52.482;13.432;2023-05-10T11:08:59;15.40;;;3.17;;
4806;SDS011;2417;52.482;13.432;2023-05-10T11:11:34;17.20;;;3.40;;
4806;SDS011;2417;52.482;13.432;2023-05-10T11:14:03;12.00;;;2.97;;
4806;SDS011;2417;52.482;13.432;2023-05-10T11:16:40;13.33;;;3.57;;
4806;SDS011;2417;52.482;13.432;2023-05-10T11:19:10;14.07;;;3.40;;
4806;SDS011;2417;52.482;13.432;2023-05-10T11:21:44;16.10;;;3.60;;
4806;SDS011;2417;52.482;13.432;2023-05-10T11:24:13;17.00;;;3.60;;
4806;SDS011;2417;52.482;13.432;2023-05-10T11:26:41;12.97;;;3.27;;
4806;SDS011;2417;52.482;13.432;2023-05-10T11:29:09;12.93;;;3.43;;
4806;SDS011;2417;52.482;13.432;2023-05-10T11:31:41;11.50;;;3.00;;
4806;SDS011;2417;52.482;13.432;2023-05-10T11:34:11;11.10;;;3.13;;
4806;SDS011;2417;52.482;13.432;2023-05-10T11:36:43;15.10;;;3.63;;
4806;SDS011;2417;52.482;13.432;2023-05-10T11:39:11;15.90;;;5.00;;
4806;SDS011;2417;52.482;13.432;2023-05-10T11:41:39;18.90;;;3.10;;
4806;SDS011;2417;52.482;13.432;2023-05-10T11:44:09;16.70;;;3.53;;
4806;SDS011;2417;52.482;13.432;2023-05-10T11:46:36;15.03;;;3.97;;
4806;SDS011;2417;52.482;13.432;2023-05-10T11:49:04;17.53;;;3.80;;
4806;SDS011;2417;52.482;13.432;2023-05-10T11:51:36;13.63;;;3.37;;
4806;SDS011;2417;52.482;13.432;2023-05-10T11:54:06;12.43;;;3.80;;
4806;SDS011;2417;52.482;13.432;2023-05-10T11:56:38;13.17;;;3.13;;
4806;SDS011;2417;52.482;13.432;2023-05-10T11:59:07;14.70;;;3.93;;
4806;SDS011;2417;52.482;13.432;2023-05-10T12:01:36;20.57;;;3.30;;
4806;SDS011;2417;52.482;13.432;2023-05-10T12:04:04;17.93;;;3.00;;
4806;SDS011;2417;52.482;13.432;2023-05-10T12:06:34;14.20;;;3.40;;
4806;SDS011;2417;52.482;13.432;2023-05-10T12:09:06;11.67;;;2.90;;
4806;SDS011;2417;52.482;13.432;2023-05-10T12:11:38;12.87;;;3.17;;
4806;SDS011;2417;52.482;13.432;2023-05-10T12:14:10;15.27;;;3.60;;
4806;SDS011;2417;52.482;13.432;2023-05-10T12:16:37;12.40;;;3.20;;
4806;SDS011;2417;52.482;13.432;2023-05-10T12:19:06;11.67;;;3.30;;
4806;SDS011;2417;52.482;13.432;2023-05-10T12:21:34;15.13;;;3.07;;
4806;SDS011;2417;52.482;13.432;2023-05-10T12:24:02;13.10;;;3.20;;
4806;SDS011;2417;52.482;13.432;2023-05-10T12:26:32;11.07;;;2.83;;
4806;SDS011;2417;52.482;13.432;2023-05-10T12:29:13;13.00;;;3.67;;
4806;SDS011;2417;52.482;13.432;2023-05-10T12:31:48;16.90;;;3.43;;
4806;SDS011;2417;52.482;13.432;2023-05-10T12:34:22;12.87;;;3.43;;
4806;SDS011;2417;52.482;13.432;2023-05-10T12:36:51;16.13;;;2.83;;
4806;SDS011;2417;52.482;13.432;2023-05-10T12:39:19;15.60;;;3.80;;
4806;SDS011;2417;52.482;13.432;2023-05-10T12:41:48;13.97;;;3.10;;
4806;SDS011;2417;52.482;13.432;2023-05-10T12:44:16;16.83;;;3.90;;
4806;SDS011;2417;52.482;13.432;2023-05-10T12:46:44;11.70;;;3.30;;
4806;SDS011;2417;52.482;13.432;2023-05-10T12:49:12;16.20;;;3.30;;
4806;SDS011;2417;52.482;13.432;2023-05-10T12:51:40;14.37;;;3.17;;
4806;SDS011;2417;52.482;13.432;2023-05-10T12:54:08;14.00;;;3.10;;
4806;SDS011;2417;52.482;13.432;2023-05-10T12:56:35;13.93;;;3.70;;
4806;SDS011;2417;52.482;13.432;2023-05-10T12:59:05;23.33;;;3.57;;
4806;SDS011;2417;52.482;13.432;2023-05-10T13:01:33;15.53;;;4.23;;
4806;SDS011;2417;52.482;13.432;2023-05-10T13:04:01;13.27;;;3.67;;
4806;SDS011;2417;52.482;13.432;2023-05-10T13:06:29;15.07;;;4.03;;
4806;SDS011;2417;52.482;13.432;2023-05-10T13:08:57;14.03;;;3.40;;
4806;SDS011;2417;52.482;13.432;2023-05-10T13:11:25;14.30;;;3.87;;
4806;SDS011;2417;52.482;13.432;2023-05-10T13:13:53;14.63;;;3.90;;
4806;SDS011;2417;52.482;13.432;2023-05-10T13:16:22;13.47;;;3.97;;
4806;SDS011;2417;52.482;13.432;2023-05-10T13:18:49;15.23;;;3.70;;
4806;SDS011;2417;52.482;13.432;2023-05-10T13:21:17;15.80;;;3.73;;
4806;SDS011;2417;52.482;13.432;2023-05-10T13:23:45;12.70;;;2.93;;
4806;SDS011;2417;52.482;13.432;2023-05-10T13:26:13;15.20;;;3.20;;
4806;SDS011;2417;52.482;13.432;2023-05-10T13:28:43;13.90;;;3.50;;
4806;SDS011;2417;52.482;13.432;2023-05-10T13:31:12;21.10;;;3.83;;
4806;SDS011;2417;52.482;13.432;2023-05-10T13:33:44;14.27;;;3.33;;
4806;SDS011;2417;52.482;13.432;2023-05-10T13:36:16;13.40;;;2.90;;
4806;SDS011;2417;52.482;13.432;2023-05-10T13:38:44;12.00;;;3.00;;
4806;SDS011;2417;52.482;13.432;2023-05-10T13:41:12;14.63;;;3.83;;
4806;SDS011;2417;52.482;13.432;2023-05-10T13:43:39;13.00;;;3.80;;
4806;SDS011;2417;52.482;13.432;2023-05-10T13:46:07;14.53;;;4.00;;
4806;SDS011;2417;52.482;13.432;2023-05-10T13:48:35;11.87;;;3.00;;
4806;SDS011;2417;52.482;13.432;2023-05-10T13:51:06;12.43;;;3.50;;
4806;SDS011;2417;52.482;13.432;2023-05-10T13:53:34;12.33;;;3.50;;
4806;SDS011;2417;52.482;13.432;2023-05-10T13:56:02;19.23;;;3.80;;
4806;SDS011;2417;52.482;13.432;2023-05-10T13:58:30;16.37;;;4.40;;
4806;SDS011;2417;52.482;13.432;2023-05-10T14:00:58;12.50;;;3.43;;
4806;SDS011;2417;52.482;13.432;2023-05-10T14:03:26;12.80;;;2.93;;
4806;SDS011;2417;52.482;13.432;2023-05-10T14:05:54;17.93;;;2.77;;
4806;SDS011;2417;52.482;13.432;2023-05-10T14:08:24;12.90;;;3.40;;
4806;SDS011;2417;52.482;13.432;2023-05-10T14:10:55;12.43;;;3.10;;
4806;SDS011;2417;52.482;13.432;2023-05-10T14:13:24;16.00;;;2.70;;
4806;SDS011;2417;52.482;13.432;2023-05-10T14:15:52;12.20;;;3.50;;
4806;SDS011;2417;52.482;13.432;2023-05-10T14:18:20;11.37;;;2.60;;
4806;SDS011;2417;52.482;13.432;2023-05-10T14:20:47;12.10;;;2.83;;
4806;SDS011;2417;52.482;13.432;2023-05-10T14:23:15;11.97;;;3.07;;
4806;SDS011;2417;52.482;13.432;2023-05-10T14:25:48;14.03;;;3.37;;
4806;SDS011;2417;52.482;13.432;2023-05-10T14:28:17;12.33;;;3.50;;
4806;SDS011;2417;52.482;13.432;2023-05-10T14:30:46;13.70;;;4.70;;
4806;SDS011;2417;52.482;13.432;2023-05-10T14:33:13;11.40;;;3.20;;
4806;SDS011;2417;52.482;13.432;2023-05-10T14:35:41;12.30;;;3.90;;
4806;SDS011;2417;52.482;13.432;2023-05-10T14:38:09;13.97;;;4.13;;
4806;SDS011;2417;52.482;13.432;2023-05-10T14:40:39;15.40;;;3.23;;
4806;SDS011;2417;52.482;13.432;2023-05-10T14:43:08;15.00;;;3.40;;
4806;SDS011;2417;52.482;13.432;2023-05-10T14:45:36;12.50;;;3.40;;
4806;SDS011;2417;52.482;13.432;2023-05-10T14:48:04;18.80;;;3.53;;
4806;SDS011;2417;52.482;13.432;2023-05-10T14:50:32;12.07;;;3.00;;
4806;SDS011;2417;52.482;13.432;2023-05-10T14:53:03;13.27;;;2.90;;
4806;SDS011;2417;52.482;13.432;2023-05-10T14:55:30;12.67;;;3.03;;
4806;SDS011;2417;52.482;13.432;2023-05-10T14:57:59;14.87;;;3.57;;
4806;SDS011;2417;52.482;13.432;2023-05-10T15:00:28;12.67;;;3.27;;
4806;SDS011;2417;52.482;13.432;2023-05-10T15:02:57;13.73;;;3.50;;
4806;SDS011;2417;52.482;13.432;2023-05-10T15:05:26;14.07;;;3.03;;
4806;SDS011;2417;52.482;13.432;2023-05-10T15:07:54;14.50;;;3.77;;
4806;SDS011;2417;52.482;13.432;2023-05-10T15:10:22;16.43;;;4.60;;